Time;durP1;ratioP1;P1;durP2;ratioP2;P2;SDS_P1;SDS_P2;PMS_P1;PMS_P2;Temp;Humidity;BMP_temperature;BMP_pressure;BME280_temperature;BME280_humidity;BME280_pressure;Samples;Min_cycle;Max_cycle;Signal;HPM_P1;HPM_P2
2024/01/22 00:05:04;;;;;;;;;;;;;;;-0.38;71.62;100623.25;217683;1259;126137;-75
2024/01/22 00:10:08;;;;;;;;;;;;;;;-0.44;71.26;100614.88;217302;1257;126351;-74
2024/01/22 00:15:13;;;;;;;;;;;;;;;-0.49;71.25;100613.77;217274;1257;126417;-74
2024/01/22 00:20:18;;;;;;;;;;;;;;;-0.55;71.19;100594.09;217816;1257;126098;-75
2024/01/22 00:25:22;;;;;;;;;;;;;;;-0.62;70.99;100587.75;217736;1256;126237;-74
2024/01/22 00:30:27;;;;;;;;;;;;;;;-0.67;70.78;100597.20;219249;1256;126498;-74
2024/01/22 00:35:31;;;;;;;;;;;;;;;-0.72;70.55;100581.91;217753;1257;126228;-72
2024/01/22 00:40:36;;;;;;;;;;;;;;;-0.76;71.01;100565.68;220665;1255;127056;-73
2024/01/22 00:45:39;;;;;;;;;;;;;;;-0.79;70.53;100572.23;219423;1257;126461;-77
2024/01/22 00:50:44;;;;;;;;;;;;;;;-0.80;70.48;100577.23;219597;1256;127031;-75
2024/01/22 00:55:49;;;;;;;;;;;;;;;-0.82;70.43;100580.19;220676;1255;126539;-76
2024/01/22 01:00:54;;;;;;;;;;;;;;;-0.81;70.49;100577.68;220070;1256;127227;-75
2024/01/22 01:05:58;;;;;;;;;;;;;;;-0.80;70.06;100576.55;220517;1255;126314;-76
2024/01/22 01:11:03;;;;;;;;;;;;;;;-0.82;69.88;100573.88;219131;1259;126431;-74
2024/01/22 01:16:07;;;;;;;;;;;;;;;-0.84;70.24;100573.91;218742;1255;126243;-76
2024/01/22 01:21:13;;;;;;;;;;;;;;;-0.86;70.10;100565.37;217278;1257;126106;-76
2024/01/22 01:26:17;;;;;;;;;;;;;;;-0.90;69.98;100564.68;217745;1257;126340;-75
2024/01/22 01:31:21;;;;;;;;;;;;;;;-0.93;69.96;100552.08;217563;1255;126565;-73
2024/01/22 01:36:25;;;;;;;;;;;;;;;-0.98;70.16;100553.27;217787;1257;127027;-75
2024/01/22 01:41:30;;;;;;;;;;;;;;;-1.01;70.41;100560.51;217719;1257;127097;-74
2024/01/22 01:46:36;;;;;;;;;;;;;;;-0.97;70.46;100553.02;217526;1257;126935;-74
2024/01/22 01:51:41;;;;;;;;;;;;;;;-0.95;70.53;100550.70;217496;1259;127426;-73
2024/01/22 01:56:45;;;;;;;;;;;;;;;-0.93;70.02;100543.00;217573;1257;126362;-76
2024/01/22 02:01:50;;;;;;;;;;;;;;;-0.92;70.15;100538.73;217973;1259;126436;-74
2024/01/22 02:06:55;;;;;;;;;;;;;;;-0.92;70.21;100535.48;218084;1259;126194;-75
2024/01/22 02:12:00;;;;;;;;;;;;;;;-0.91;70.21;100519.98;218726;1256;126493;-77
2024/01/22 02:17:05;;;;;;;;;;;;;;;-0.84;70.46;100513.20;217616;1257;126301;-77
2024/01/22 02:22:10;;;;;;;;;;;;;;;-0.76;70.54;100511.73;217557;1257;127624;-77
2024/01/22 02:27:15;;;;;;;;;;;;;;;-0.67;70.46;100503.44;217458;1257;126865;-71
2024/01/22 02:32:19;;;;;;;;;;;;;;;-0.60;70.57;100486.67;218075;1259;126107;-76
2024/01/22 02:37:24;;;;;;;;;;;;;;;-0.53;70.28;100479.77;217780;1259;127659;-75
2024/01/22 02:42:28;;;;;;;;;;;;;;;-0.50;70.29;100468.64;218551;1257;126462;-75
2024/01/22 02:47:32;;;;;;;;;;;;;;;-0.48;70.26;100464.20;219494;1256;126442;-76
2024/01/22 02:52:37;;;;;;;;;;;;;;;-0.43;70.30;100473.39;220574;1255;126283;-76
2024/01/22 02:57:40;;;;;;;;;;;;;;;-0.38;70.08;100472.56;217895;1257;126277;-78
2024/01/22 03:02:45;;;;;;;;;;;;;;;-0.33;69.91;100466.64;217540;1257;127167;-77
2024/01/22 03:07:50;;;;;;;;;;;;;;;-0.26;69.72;100454.30;217589;1257;223880;-74
2024/01/22 03:12:55;;;;;;;;;;;;;;;-0.22;69.63;100443.56;219066;1257;126256;-77
2024/01/22 03:17:59;;;;;;;;;;;;;;;-0.19;69.62;100434.38;217495;1257;127082;-76
2024/01/22 03:23:04;;;;;;;;;;;;;;;-0.17;69.94;100429.48;217481;1259;126811;-75
2024/01/22 03:28:08;;;;;;;;;;;;;;;-0.14;69.76;100430.63;217999;1256;375285;-75
2024/01/22 03:33:12;;;;;;;;;;;;;;;-0.13;69.54;100429.08;218501;1259;125959;-75
2024/01/22 03:38:18;;;;;;;;;;;;;;;-0.10;69.62;100419.85;217752;1257;127139;-75
2024/01/22 03:43:22;;;;;;;;;;;;;;;-0.06;69.57;100412.71;217861;1255;126226;-75
2024/01/22 03:48:26;;;;;;;;;;;;;;;-0.05;69.69;100401.75;218118;1257;126220;-74
2024/01/22 03:53:31;;;;;;;;;;;;;;;-0.05;69.41;100391.43;217723;1257;128214;-75
2024/01/22 03:58:36;;;;;;;;;;;;;;;-0.04;69.51;100384.00;218483;1256;126554;-75
2024/01/22 04:03:40;;;;;;;;;;;;;;;-0.03;69.33;100366.05;217438;1259;126558;-72
2024/01/22 04:08:44;;;;;;;;;;;;;;;-0.03;69.52;100366.58;217842;1259;126586;-75
2024/01/22 04:13:49;;;;;;;;;;;;;;;-0.02;69.37;100349.71;217868;1257;126609;-74
2024/01/22 04:18:54;;;;;;;;;;;;;;;0.04;69.36;100339.58;218332;1257;126834;-74
2024/01/22 04:23:58;;;;;;;;;;;;;;;0.08;69.23;100340.89;217475;1257;126117;-73
2024/01/22 04:29:03;;;;;;;;;;;;;;;0.11;69.33;100339.13;219268;1257;126645;-77
2024/01/22 04:34:07;;;;;;;;;;;;;;;0.17;69.67;100331.02;218479;1257;126687;-78
2024/01/22 04:39:11;;;;;;;;;;;;;;;0.23;69.21;100323.45;217575;1257;126651;-77
2024/01/22 04:44:16;;;;;;;;;;;;;;;0.24;69.24;100302.86;217815;1257;233493;-76
2024/01/22 04:49:20;;;;;;;;;;;;;;;0.27;69.03;100287.96;220621;1257;126524;-77
2024/01/22 04:54:24;;;;;;;;;;;;;;;0.29;68.76;100272.11;217974;1256;126166;-77
2024/01/22 04:59:28;;;;;;;;;;;;;;;0.29;68.85;100258.64;220596;1256;126619;-73
2024/01/22 05:04:34;;;;;;;;;;;;;;;0.26;68.46;100252.52;217808;1256;126784;-76
2024/01/22 05:09:38;;;;;;;;;;;;;;;0.21;68.33;100245.64;217464;1257;126566;-76
2024/01/22 05:14:43;;;;;;;;;;;;;;;0.14;68.30;100250.91;218027;1259;127421;-76
2024/01/22 05:19:47;;;;;;;;;;;;;;;0.09;68.54;100242.18;217606;1257;126254;-75
2024/01/22 05:24:53;;;;;;;;;;;;;;;0.05;68.56;100245.56;218053;1257;125673;-75
2024/01/22 05:29:58;;;;;;;;;;;;;;;-0.00;68.05;100221.82;217480;1257;126246;-75
2024/01/22 05:35:02;;;;;;;;;;;;;;;-0.07;68.14;100211.99;220174;1257;126754;-73
2024/01/22 05:40:10;;;;;;;;;;;;;;;-0.10;68.07;100199.75;218162;1257;126955;-72
2024/01/22 05:45:14;;;;;;;;;;;;;;;-0.13;68.12;100191.28;217521;1259;126492;-72
2024/01/22 05:50:19;;;;;;;;;;;;;;;-0.14;67.61;100184.66;217814;1259;126000;-71
2024/01/22 05:55:24;;;;;;;;;;;;;;;-0.16;67.84;100172.75;217612;1256;126321;-74
2024/01/22 06:00:29;;;;;;;;;;;;;;;-0.17;67.83;100154.56;219300;1257;127054;-75
2024/01/22 06:05:34;;;;;;;;;;;;;;;-0.16;67.55;100148.02;219444;1257;126486;-75
2024/01/22 06:10:38;;;;;;;;;;;;;;;-0.14;67.43;100150.36;218257;1257;126281;-73
2024/01/22 06:15:43;;;;;;;;;;;;;;;-0.11;67.47;100138.34;217587;1260;126189;-73
2024/01/22 06:20:47;;;;;;;;;;;;;;;-0.10;67.15;100130.95;217992;1258;125618;-72
2024/01/22 06:25:52;;;;;;;;;;;;;;;-0.10;67.20;100141.55;218634;1256;126288;-76
2024/01/22 06:30:57;;;;;;;;;;;;;;;-0.07;67.13;100128.16;218073;1257;126246;-73
2024/01/22 06:36:01;;;;;;;;;;;;;;;-0.04;67.08;100119.17;217673;1259;125584;-72
2024/01/22 06:41:15;;;;;;;;;;;;;;;-0.03;66.81;100122.49;220046;1256;125357;-72
2024/01/22 06:46:19;;;;;;;;;;;;;;;-0.00;66.84;100125.54;217819;1257;125480;-72
2024/01/22 06:51:23;;;;;;;;;;;;;;;0.04;66.77;100117.02;218926;1259;125508;-77
2024/01/22 06:56:37;;;;;;;;;;;;;;;0.09;66.52;100120.52;217887;1259;126222;-75
2024/01/22 07:01:42;;;;;;;;;;;;;;;0.16;66.36;100112.69;218010;1259;125108;-74
2024/01/22 07:06:46;;;;;;;;;;;;;;;0.29;66.01;100133.19;218182;1256;127537;-74
2024/01/22 07:11:50;;;;;;;;;;;;;;;0.38;65.85;100141.37;219472;1257;125339;-73
2024/01/22 07:16:54;;;;;;;;;;;;;;;0.40;65.57;100137.80;217463;1257;126992;-74
2024/01/22 07:21:57;;;;;;;;;;;;;;;0.44;65.17;100143.30;217362;1260;127606;-73
2024/01/22 07:27:02;;;;;;;;;;;;;;;0.51;65.63;100137.39;217343;1262;126316;-74
2024/01/22 07:32:06;;;;;;;;;;;;;;;0.59;65.51;100128.78;217566;1259;125217;-74
2024/01/22 07:37:10;;;;;;;;;;;;;;;0.67;65.41;100128.95;217510;1259;126805;-74
2024/01/22 07:42:15;;;;;;;;;;;;;;;0.79;65.15;100124.23;217417;1257;126475;-74
2024/01/22 07:47:19;;;;;;;;;;;;;;;0.93;64.78;100118.13;217396;1259;125369;-75
2024/01/22 07:52:25;;;;;;;;;;;;;;;1.08;64.50;100106.95;217217;1256;125818;-75
2024/01/22 07:57:30;;;;;;;;;;;;;;;1.20;64.32;100099.50;217366;1260;125766;-75
2024/01/22 08:02:36;;;;;;;;;;;;;;;1.26;64.09;100083.69;217923;1257;125106;-75
2024/01/22 08:07:41;;;;;;;;;;;;;;;1.32;64.01;100072.52;217229;1259;125212;-74
2024/01/22 08:12:46;;;;;;;;;;;;;;;1.40;63.79;100062.56;217376;1257;125150;-74
2024/01/22 08:17:51;;;;;;;;;;;;;;;1.47;63.63;100066.17;218426;1259;127078;-76
2024/01/22 08:22:57;;;;;;;;;;;;;;;1.53;63.55;100061.57;217424;1260;126304;-74
2024/01/22 08:28:02;;;;;;;;;;;;;;;1.60;63.26;100058.03;217478;1257;126888;-74
2024/01/22 08:33:07;;;;;;;;;;;;;;;1.66;63.59;100055.59;217709;1260;126196;-73
2024/01/22 08:38:12;;;;;;;;;;;;;;;1.73;63.26;100043.29;218876;1260;146440;-71
2024/01/22 08:43:21;;;;;;;;;;;;;;;1.78;63.10;100036.08;217331;1260;125703;-73
2024/01/22 08:48:25;;;;;;;;;;;;;;;1.84;62.81;100021.39;217933;1259;125219;-72
2024/01/22 08:53:30;;;;;;;;;;;;;;;1.87;62.66;100014.98;218175;1257;126663;-74
2024/01/22 08:58:35;;;;;;;;;;;;;;;1.91;62.59;100014.38;217623;1259;126211;-75
2024/01/22 09:03:40;;;;;;;;;;;;;;;1.95;62.17;100001.32;217430;1257;126329;-76
2024/01/22 09:08:44;;;;;;;;;;;;;;;1.98;62.31;99978.52;217612;1259;125228;-76
2024/01/22 09:13:50;;;;;;;;;;;;;;;2.03;62.29;99980.64;217623;1259;125148;-75
2024/01/22 09:18:55;;;;;;;;;;;;;;;2.10;62.23;99974.55;217449;1259;125961;-77
2024/01/22 09:24:01;;;;;;;;;;;;;;;2.19;62.37;99965.66;217457;1259;125657;-75
2024/01/22 09:29:05;;;;;;;;;;;;;;;2.27;61.96;99946.33;217470;1259;126986;-75
2024/01/22 09:34:10;;;;;;;;;;;;;;;2.36;62.14;99942.44;217798;1259;125946;-76
2024/01/22 09:39:15;;;;;;;;;;;;;;;2.48;61.94;99928.95;217646;1259;125828;-76
2024/01/22 09:44:20;;;;;;;;;;;;;;;2.62;61.55;99904.75;217706;1259;125102;-75
2024/01/22 09:49:24;;;;;;;;;;;;;;;2.72;61.37;99883.66;217542;1259;125722;-76
2024/01/22 09:54:30;;;;;;;;;;;;;;;2.87;61.26;99878.03;217374;1257;125476;-76
2024/01/22 09:59:35;;;;;;;;;;;;;;;2.99;60.99;99863.82;217646;1257;126274;-70
2024/01/22 10:04:39;;;;;;;;;;;;;;;3.12;60.76;99861.86;217581;1259;125272;-71
2024/01/22 10:09:49;;;;;;;;;;;;;;;3.23;60.61;99854.83;217720;1257;126031;-71
2024/01/22 10:14:54;;;;;;;;;;;;;;;3.32;60.76;99834.16;217630;1259;125796;-71
2024/01/22 10:20:06;;;;;;;;;;;;;;;3.40;60.49;99820.61;219028;1258;125030;-71
2024/01/22 10:25:10;;;;;;;;;;;;;;;3.43;60.01;99804.58;220731;1259;125157;-73
2024/01/22 10:30:17;;;;;;;;;;;;;;;3.49;59.88;99789.61;220744;1256;126114;-73
2024/01/22 10:35:22;;;;;;;;;;;;;;;3.61;59.52;99788.86;220283;1257;128524;-74
2024/01/22 10:40:30;;;;;;;;;;;;;;;3.73;59.19;99773.48;217887;1260;126760;-76
2024/01/22 10:45:35;;;;;;;;;;;;;;;3.86;59.17;99776.61;218214;1257;125577;-76
2024/01/22 10:50:41;;;;;;;;;;;;;;;3.91;58.64;99773.70;217753;1259;125432;-72
2024/01/22 10:56:04;;;;;;;;;;;;;;;3.93;58.65;99766.25;217463;1257;125518;-76
2024/01/22 11:01:12;;;;;;;;;;;;;;;3.92;58.42;99763.69;217644;1258;125274;-76
2024/01/22 11:06:20;;;;;;;;;;;;;;;3.95;58.51;99773.30;217779;1260;126371;-77
2024/01/22 11:11:25;;;;;;;;;;;;;;;4.03;58.62;99761.89;217504;1258;125930;-76
2024/01/22 11:16:30;;;;;;;;;;;;;;;4.05;58.22;99741.86;217565;1257;125800;-74
2024/01/22 11:21:39;;;;;;;;;;;;;;;4.02;57.96;99725.52;217465;1256;126035;-74
2024/01/22 11:26:54;;;;;;;;;;;;;;;4.00;57.79;99733.83;217584;1260;125817;-74
2024/01/22 11:32:18;;;;;;;;;;;;;;;3.94;57.67;99736.94;217591;1260;126400;-73
2024/01/22 11:37:33;;;;;;;;;;;;;;;3.92;57.81;99737.85;217613;1258;125190;-75
2024/01/22 11:42:38;;;;;;;;;;;;;;;3.88;57.26;99720.61;217636;1257;126102;-77
2024/01/22 11:47:42;;;;;;;;;;;;;;;3.82;57.62;99713.45;217766;1256;125091;-75
2024/01/22 11:52:50;;;;;;;;;;;;;;;3.81;57.23;99711.27;217721;1257;125490;-75
2024/01/22 11:57:55;;;;;;;;;;;;;;;3.82;57.29;99706.08;218631;1260;126541;-74
2024/01/22 12:03:01;;;;;;;;;;;;;;;3.86;56.92;99698.73;217601;1259;125672;-77
2024/01/22 12:08:11;;;;;;;;;;;;;;;3.93;56.86;99689.70;217578;1260;126050;-77
2024/01/22 12:13:16;;;;;;;;;;;;;;;4.02;56.87;99686.73;217740;1257;125482;-76
2024/01/22 12:18:24;;;;;;;;;;;;;;;4.12;56.80;99685.58;220638;1257;136244;-77
2024/01/22 12:23:31;;;;;;;;;;;;;;;4.18;56.29;99671.55;220657;1257;124651;-78
2024/01/22 12:28:36;;;;;;;;;;;;;;;4.22;55.93;99660.89;219966;1257;125151;-78
2024/01/22 12:33:43;;;;;;;;;;;;;;;4.27;56.12;99656.20;217634;1260;126517;-79
2024/01/22 12:38:51;;;;;;;;;;;;;;;4.30;55.77;99650.35;217802;1259;125415;-77
2024/01/22 12:43:59;;;;;;;;;;;;;;;4.32;55.44;99648.77;217534;1259;127036;-80
2024/01/22 12:49:04;;;;;;;;;;;;;;;4.37;55.50;99640.84;217986;1257;125622;-78
2024/01/22 12:54:09;;;;;;;;;;;;;;;4.34;55.19;99629.51;217546;1257;126847;-77
2024/01/22 12:59:14;;;;;;;;;;;;;;;4.32;55.14;99625.92;217455;1256;125270;-74
2024/01/22 13:04:19;;;;;;;;;;;;;;;4.26;55.25;99609.80;217625;1259;125185;-79
2024/01/22 13:09:24;;;;;;;;;;;;;;;4.17;55.76;99608.21;217542;1260;124927;-79
2024/01/22 13:14:30;;;;;;;;;;;;;;;4.05;56.49;99583.23;217807;1259;125705;-79
2024/01/22 13:19:35;;;;;;;;;;;;;;;3.92;56.78;99580.91;218195;1257;125742;-79
2024/01/22 13:24:44;;;;;;;;;;;;;;;3.85;58.13;99568.54;217785;1259;125213;-79
2024/01/22 13:29:51;;;;;;;;;;;;;;;3.70;58.61;99561.64;217705;1260;126837;-73
2024/01/22 13:34:57;;;;;;;;;;;;;;;3.53;59.21;99531.83;217659;1260;125799;-74
2024/01/22 13:40:22;;;;;;;;;;;;;;;3.37;59.49;99513.20;217605;1259;125790;-72
2024/01/22 13:45:28;;;;;;;;;;;;;;;3.31;59.93;99540.70;217759;1259;125955;-74
2024/01/22 13:50:33;;;;;;;;;;;;;;;3.34;59.78;99518.52;217812;1259;126082;-73
2024/01/22 13:55:39;;;;;;;;;;;;;;;3.39;59.56;99506.44;217644;1257;125770;-74
2024/01/22 14:00:43;;;;;;;;;;;;;;;3.45;59.11;99510.41;218271;1256;125597;-73
2024/01/22 14:05:50;;;;;;;;;;;;;;;3.52;58.73;99495.33;217486;1257;125202;-72
2024/01/22 14:10:54;;;;;;;;;;;;;;;3.58;58.33;99475.46;220434;1256;125406;-73
2024/01/22 14:15:59;;;;;;;;;;;;;;;3.62;58.16;99478.04;218704;1257;126309;-72
2024/01/22 14:21:07;;;;;;;;;;;;;;;3.61;58.14;99469.15;218127;1259;126054;-75
2024/01/22 14:26:11;;;;;;;;;;;;;;;3.61;57.84;99468.27;217592;1260;125973;-75
2024/01/22 14:31:16;;;;;;;;;;;;;;;3.62;57.76;99477.67;217523;1258;124935;-74
2024/01/22 14:36:20;;;;;;;;;;;;;;;3.57;57.47;99488.11;217316;1260;125823;-73
2024/01/22 14:41:25;;;;;;;;;;;;;;;3.55;57.71;99484.77;217689;1260;125076;-73
2024/01/22 14:46:29;;;;;;;;;;;;;;;3.53;57.73;99483.95;218480;1257;126178;-72
2024/01/22 14:51:38;;;;;;;;;;;;;;;3.52;57.72;99482.44;217386;1257;125546;-72
2024/01/22 14:56:45;;;;;;;;;;;;;;;3.52;57.73;99474.61;217487;1257;125521;-74
2024/01/22 15:01:49;;;;;;;;;;;;;;;3.48;57.78;99476.86;217457;1257;126923;-76
2024/01/22 15:06:55;;;;;;;;;;;;;;;3.43;58.03;99477.84;217288;1257;126248;-76
2024/01/22 15:11:59;;;;;;;;;;;;;;;3.39;58.11;99480.94;217229;1259;125343;-75
2024/01/22 15:17:04;;;;;;;;;;;;;;;3.37;58.26;99472.23;217494;1256;125329;-75
2024/01/22 15:22:09;;;;;;;;;;;;;;;3.39;58.60;99469.70;217822;1257;126503;-75
2024/01/22 15:27:14;;;;;;;;;;;;;;;3.31;58.62;99456.39;217442;1259;125996;-77
2024/01/22 15:32:19;;;;;;;;;;;;;;;3.26;58.75;99453.09;217561;1259;250731;-77
2024/01/22 15:37:26;;;;;;;;;;;;;;;3.22;58.91;99452.58;217486;1256;125106;-75
2024/01/22 15:42:30;;;;;;;;;;;;;;;3.21;59.14;99442.19;217404;1259;125024;-78
2024/01/22 15:47:34;;;;;;;;;;;;;;;3.20;59.30;99440.33;217421;1257;125360;-77
2024/01/22 15:52:38;;;;;;;;;;;;;;;3.18;59.44;99431.64;217417;1257;126207;-78
2024/01/22 15:57:43;;;;;;;;;;;;;;;3.17;59.62;99426.03;217721;1256;125326;-79
2024/01/22 16:02:47;;;;;;;;;;;;;;;3.13;59.62;99417.94;218070;1259;125293;-77
2024/01/22 16:07:52;;;;;;;;;;;;;;;3.09;59.91;99420.11;220441;1256;125938;-75
2024/01/22 16:12:56;;;;;;;;;;;;;;;3.08;60.01;99424.67;218487;1256;125333;-76
2024/01/22 16:18:03;;;;;;;;;;;;;;;3.06;60.28;99426.91;219695;1256;127226;-79
2024/01/22 16:23:43;;;;;;;;;;;;;;;3.05;60.31;99429.42;213905;1295;653742;-72
2024/01/22 16:28:48;;;;;;;;;;;;;;;3.02;60.43;99424.51;215730;1276;125654;-77
2024/01/22 16:36:06;;;;;;;;;;;;;;;3.03;60.87;99427.71;213663;1299;656325;-78
2024/01/22 16:43:25;;;;;;;9.20;4.70;;;;;;;3.09;61.13;99422.95;213154;1298;657071;-77
2024/01/22 16:48:30;;;;;;;10.00;6.20;;;;;;;3.08;60.94;99429.46;215561;1277;140790;-76
2024/01/22 16:53:35;;;;;;;9.70;6.10;;;;;;;3.01;61.13;99431.71;215086;1276;239962;-74
2024/01/22 16:58:39;;;;;;;7.60;4.80;;;;;;;2.97;61.32;99430.99;215756;1272;137986;-72
2024/01/22 17:03:44;;;;;;;7.70;3.80;;;;;;;2.94;61.26;99418.58;215622;1270;140060;-76
2024/01/22 17:08:50;;;;;;;8.50;5.30;;;;;;;2.91;61.65;99405.98;216160;1264;139016;-76
2024/01/22 17:13:55;;;;;;;8.60;5.80;;;;;;;2.87;61.65;99380.42;216117;1268;138807;-73
2024/01/22 17:18:59;;;;;;;10.60;7.60;;;;;;;2.85;61.75;99392.70;216102;1270;140434;-76
2024/01/22 17:24:03;;;;;;;9.10;5.30;;;;;;;2.82;61.67;99394.43;216533;1267;138246;-79
2024/01/22 17:29:08;;;;;;;8.00;5.10;;;;;;;2.78;61.88;99396.55;217600;1264;138049;-77
2024/01/22 17:34:13;;;;;;;8.70;5.70;;;;;;;2.76;62.08;99400.52;216299;1264;137994;-76
2024/01/22 17:39:18;;;;;;;10.30;5.20;;;;;;;2.78;62.14;99398.29;216607;1264;138484;-75
2024/01/22 17:44:22;;;;;;;10.80;6.00;;;;;;;2.80;62.26;99390.33;216211;1267;139144;-73
2024/01/22 17:49:27;;;;;;;9.30;5.70;;;;;;;2.81;62.29;99380.25;216762;1267;209399;-78
2024/01/22 17:54:31;;;;;;;11.70;5.60;;;;;;;2.83;62.49;99380.15;217836;1263;138689;-79
2024/01/22 17:59:36;;;;;;;9.50;5.00;;;;;;;2.84;62.54;99369.75;216778;1266;140255;-80
2024/01/22 18:04:40;;;;;;;10.80;4.80;;;;;;;2.87;62.66;99360.81;216787;1264;138156;-77
2024/01/22 18:09:44;;;;;;;7.80;5.80;;;;;;;2.89;62.93;99370.95;217224;1264;139423;-80
2024/01/22 18:14:51;;;;;;;11.30;6.60;;;;;;;2.90;63.41;99369.91;218003;1267;138879;-79
2024/01/22 18:19:56;;;;;;;8.70;6.10;;;;;;;2.92;63.49;99371.90;217066;1260;138455;-75
2024/01/22 18:25:01;;;;;;;9.80;5.70;;;;;;;2.95;63.72;99373.22;217651;1260;139297;-77
2024/01/22 18:30:10;;;;;;;9.20;5.00;;;;;;;2.98;63.84;99370.16;217592;1257;138843;-73
2024/01/22 18:35:14;;;;;;;9.10;6.10;;;;;;;2.99;63.99;99371.05;218060;1257;138463;-73
2024/01/22 18:40:18;;;;;;;9.60;8.20;;;;;;;2.99;64.14;99371.10;217951;1257;138639;-72
2024/01/22 18:45:22;;;;;;;12.20;7.60;;;;;;;2.99;64.30;99370.90;217144;1257;138617;-72
2024/01/22 18:50:26;;;;;;;14.40;6.30;;;;;;;2.99;64.57;99365.23;217267;1260;139346;-74
2024/01/22 18:55:31;;;;;;;10.30;6.30;;;;;;;2.99;64.82;99374.34;217113;1258;138511;-74
2024/01/22 19:00:35;;;;;;;21.00;6.50;;;;;;;3.00;64.92;99366.93;216884;1260;141163;-72
2024/01/22 19:05:39;;;;;;;23.30;12.20;;;;;;;2.98;65.18;99364.69;217010;1260;147496;-73
2024/01/22 19:10:44;;;;;;;11.50;6.30;;;;;;;2.96;65.51;99359.70;217279;1260;138089;-72
2024/01/22 19:15:49;;;;;;;15.70;8.60;;;;;;;2.96;65.69;99362.98;218106;1257;139566;-76
2024/01/22 19:20:53;;;;;;;11.40;7.20;;;;;;;2.98;65.82;99362.10;217032;1256;139989;-71
2024/01/22 19:25:59;;;;;;;14.10;7.20;;;;;;;2.99;66.09;99363.89;217095;1257;139254;-73
2024/01/22 19:31:04;;;;;;;12.80;7.50;;;;;;;2.99;66.24;99366.67;218886;1257;140811;-73
2024/01/22 19:36:09;;;;;;;14.10;8.20;;;;;;;2.99;66.52;99365.92;217518;1257;140510;-79
2024/01/22 19:41:14;;;;;;;9.50;6.50;;;;;;;3.00;66.79;99359.85;217121;1260;140138;-78
2024/01/22 19:46:18;;;;;;;11.80;7.20;;;;;;;3.02;67.02;99356.98;216888;1260;150782;-76
2024/01/22 19:51:24;;;;;;;13.60;6.90;;;;;;;3.03;67.19;99349.94;217225;1260;139591;-73
2024/01/22 19:56:29;;;;;;;13.50;6.40;;;;;;;3.04;67.49;99355.65;217878;1257;139713;-76
2024/01/22 20:01:33;;;;;;;14.80;8.20;;;;;;;3.08;67.63;99361.20;217048;1260;139475;-79
2024/01/22 20:06:37;;;;;;;13.30;6.90;;;;;;;3.09;67.91;99356.74;217651;1257;140952;-78
2024/01/22 20:11:41;;;;;;;13.60;8.30;;;;;;;3.12;68.13;99369.29;217162;1260;139256;-73
2024/01/22 20:16:45;;;;;;;14.40;8.00;;;;;;;3.12;68.25;99376.70;217051;1257;140763;-76
2024/01/22 20:21:49;;;;;;;8.00;4.60;;;;;;;3.11;68.70;99373.53;217370;1257;138836;-79
2024/01/22 20:26:55;;;;;;;11.80;9.50;;;;;;;3.10;68.90;99377.33;217085;1257;139630;-79
2024/01/22 20:32:01;;;;;;;15.40;9.30;;;;;;;3.10;69.45;99385.60;217353;1260;140190;-80
2024/01/22 20:37:06;;;;;;;9.40;7.30;;;;;;;3.10;70.01;99389.85;217603;1260;140143;-76
2024/01/22 20:42:10;;;;;;;12.40;7.70;;;;;;;3.10;70.44;99388.77;217456;1260;138985;-74
2024/01/22 20:47:15;;;;;;;16.00;8.50;;;;;;;3.12;70.86;99392.98;217505;1257;139428;-75
2024/01/22 20:52:20;;;;;;;12.60;9.80;;;;;;;3.12;71.27;99401.94;217081;1257;139520;-74
2024/01/22 20:57:25;;;;;;;8.00;6.30;;;;;;;3.11;71.65;99402.91;217007;1260;139167;-74
2024/01/22 21:02:30;;;;;;;15.20;10.40;;;;;;;3.09;72.06;99403.09;217630;1256;139576;-74
2024/01/22 21:07:39;;;;;;;18.40;8.40;;;;;;;3.09;72.36;99416.66;217230;1260;139945;-77
2024/01/22 21:12:45;;;;;;;13.70;9.90;;;;;;;3.04;72.61;99437.31;216832;1260;139283;-77
2024/01/22 21:17:50;;;;;;;17.50;8.40;;;;;;;3.01;72.96;99449.65;216970;1262;139816;-75
2024/01/22 21:22:54;;;;;;;12.60;8.20;;;;;;;2.99;73.68;99460.26;217535;1258;139662;-74
2024/01/22 21:27:59;;;;;;;13.90;8.10;;;;;;;2.95;74.16;99472.78;217463;1257;138945;-72
2024/01/22 21:33:03;;;;;;;17.90;9.20;;;;;;;2.87;74.77;99483.65;217123;1258;139056;-71
2024/01/22 21:38:08;;;;;;;17.00;10.40;;;;;;;2.77;75.55;99488.52;217037;1257;140198;-74
2024/01/22 21:43:15;;;;;;;13.90;8.60;;;;;;;2.66;76.20;99484.34;217187;1257;139896;-74
2024/01/22 21:48:21;;;;;;;18.70;11.80;;;;;;;2.60;77.03;99493.95;218074;1257;139795;-73
2024/01/22 21:53:25;;;;;;;14.60;9.70;;;;;;;2.55;77.32;99492.25;217325;1257;141194;-73
2024/01/22 21:58:30;;;;;;;14.40;9.40;;;;;;;2.53;77.71;99489.55;217168;1256;139458;-74
2024/01/22 22:03:35;;;;;;;14.30;7.80;;;;;;;2.52;77.98;99493.88;217248;1258;138953;-78
2024/01/22 22:08:40;;;;;;;16.40;11.10;;;;;;;2.50;78.30;99491.43;217240;1260;141059;-77
2024/01/22 22:13:48;;;;;;;16.00;10.30;;;;;;;2.49;78.66;99500.45;217989;1256;140240;-69
2024/01/22 22:18:53;;;;;;;15.40;9.20;;;;;;;2.49;78.80;99505.42;218641;1257;139595;-76
2024/01/22 22:23:59;;;;;;;16.40;12.50;;;;;;;2.50;79.17;99514.58;217045;1258;139304;-73
2024/01/22 22:29:03;;;;;;;15.40;10.70;;;;;;;2.52;79.39;99517.11;217154;1256;139308;-74
2024/01/22 22:34:11;;;;;;;18.40;12.60;;;;;;;2.53;79.69;99505.87;217891;1259;139263;-71
2024/01/22 22:39:15;;;;;;;16.00;10.40;;;;;;;2.55;79.79;99509.65;217038;1257;139820;-75
2024/01/22 22:44:18;;;;;;;16.20;10.30;;;;;;;2.56;79.67;99521.54;216994;1256;139725;-76
2024/01/22 22:49:23;;;;;;;18.60;11.50;;;;;;;2.57;79.87;99524.78;217207;1257;139088;-72
2024/01/22 22:54:28;;;;;;;16.20;10.50;;;;;;;2.61;79.95;99519.76;217105;1256;140065;-77
2024/01/22 22:59:33;;;;;;;14.70;10.70;;;;;;;2.61;79.97;99522.36;217189;1256;139768;-75
2024/01/22 23:04:38;;;;;;;16.00;10.80;;;;;;;2.62;79.95;99519.73;217266;1259;139939;-74
2024/01/22 23:09:43;;;;;;;20.50;11.10;;;;;;;2.66;80.09;99514.59;217273;1256;139738;-71
2024/01/22 23:14:47;;;;;;;21.00;11.60;;;;;;;2.69;80.07;99516.64;217036;1257;139903;-78
2024/01/22 23:19:52;;;;;;;17.50;10.90;;;;;;;2.71;80.10;99511.08;217197;1256;141004;-78
2024/01/22 23:24:57;;;;;;;18.10;10.00;;;;;;;2.76;80.06;99512.59;217196;1257;140280;-75
2024/01/22 23:30:02;;;;;;;13.10;7.20;;;;;;;2.79;80.11;99521.73;217264;1257;139921;-74
2024/01/22 23:35:08;;;;;;;13.80;9.60;;;;;;;2.83;80.36;99526.42;217631;1259;141924;-76
2024/01/22 23:40:13;;;;;;;11.90;7.90;;;;;;;2.88;80.18;99535.54;218025;1259;141523;-74
2024/01/22 23:45:17;;;;;;;16.00;9.80;;;;;;;2.94;80.41;99530.02;218253;1256;139350;-74
2024/01/22 23:50:22;;;;;;;9.00;7.50;;;;;;;2.99;80.33;99526.28;217494;1257;140102;-77
2024/01/22 23:55:26;;;;;;;13.00;7.80;;;;;;;3.01;80.15;99531.53;217536;1260;140950;-74
